createdAt,value
2022-08-07T00:00:36.183Z,10.91
2022-08-07T00:03:06.282Z,10.87
2022-08-07T00:05:36.139Z,10.87
2022-08-07T00:08:04.530Z,10.87
2022-08-07T00:10:31.828Z,10.86
2022-08-07T00:13:02.068Z,10.82
2022-08-07T00:15:46.315Z,10.81
2022-08-07T00:18:24.712Z,10.80
2022-08-07T00:21:01.926Z,10.76
2022-08-07T00:23:34.318Z,10.75
2022-08-07T00:26:10.836Z,10.71
2022-08-07T00:28:45.622Z,10.67
2022-08-07T00:31:16.689Z,10.65
2022-08-07T00:33:47.720Z,10.60
2022-08-07T00:36:14.488Z,10.59
2022-08-07T00:38:40.931Z,10.57
2022-08-07T00:41:10.043Z,10.56
2022-08-07T00:44:01.747Z,10.53
2022-08-07T00:46:29.130Z,10.48
2022-08-07T00:48:55.802Z,10.43
2022-08-07T00:51:22.243Z,10.41
2022-08-07T00:53:55.896Z,10.39
2022-08-07T00:56:30.247Z,10.38
2022-08-07T00:58:57.855Z,10.38
2022-08-07T01:01:24.538Z,10.40
2022-08-07T01:03:55.831Z,10.37
2022-08-07T01:06:27.994Z,10.36
2022-08-07T01:08:56.294Z,10.35
2022-08-07T01:12:09.179Z,10.30
2022-08-07T01:14:16.594Z,10.26
2022-08-07T01:16:47.264Z,10.22
2022-08-07T01:19:18.794Z,10.23
2022-08-07T01:21:48.960Z,10.27
2022-08-07T01:24:18.744Z,10.26
2022-08-07T01:26:52.270Z,10.22
2022-08-07T01:29:20.525Z,10.19
2022-08-07T01:31:49.171Z,10.19
2022-08-07T01:34:17.735Z,10.17
2022-08-07T01:36:52.459Z,10.17
2022-08-07T01:39:24.444Z,10.12
2022-08-07T01:42:37.109Z,10.08
2022-08-07T01:44:53.073Z,10.07
2022-08-07T01:48:17.762Z,10.04
2022-08-07T01:50:06.810Z,10.05
2022-08-07T01:52:35.192Z,10.06
2022-08-07T01:55:03.858Z,10.08
2022-08-07T01:58:01.294Z,10.07
2022-08-07T02:00:28.879Z,10.03
2022-08-07T02:03:11.997Z,10.03
2022-08-07T02:05:59.745Z,10.04
2022-08-07T02:08:29.257Z,10.05
2022-08-07T02:10:58.160Z,10.05
2022-08-07T02:13:58.277Z,10.08
2022-08-07T02:16:14.767Z,10.08
2022-08-07T02:18:47.044Z,10.08
2022-08-07T02:21:16.405Z,10.06
2022-08-07T02:23:45.061Z,10.03
2022-08-07T02:26:32.880Z,10.01
2022-08-07T02:29:02.235Z,9.99
2022-08-07T02:31:30.123Z,9.97
2022-08-07T02:34:11.431Z,9.96
2022-08-07T02:36:45.317Z,9.91
2022-08-07T02:39:16.937Z,9.88
2022-08-07T02:42:02.902Z,9.84
2022-08-07T02:44:37.388Z,9.78
2022-08-07T02:47:19.747Z,9.75
2022-08-07T02:49:57.777Z,9.74
2022-08-07T02:52:51.962Z,9.77
2022-08-07T02:55:28.332Z,9.76
2022-08-07T02:58:13.371Z,9.74
2022-08-07T03:00:42.141Z,9.71
2022-08-07T03:03:22.689Z,9.67
2022-08-07T03:05:53.554Z,9.68
2022-08-07T03:08:29.176Z,9.72
2022-08-07T03:10:57.412Z,9.73
2022-08-07T03:13:24.595Z,9.72
2022-08-07T03:15:56.541Z,9.73
2022-08-07T03:18:34.285Z,9.73
2022-08-07T03:21:04.674Z,9.71
2022-08-07T03:24:20.466Z,9.69
2022-08-07T03:26:34.846Z,9.67
2022-08-07T03:29:05.505Z,9.67
2022-08-07T03:31:42.481Z,9.68
2022-08-07T03:34:18.214Z,9.71
2022-08-07T03:36:49.815Z,9.67
2022-08-07T03:39:17.625Z,9.67
2022-08-07T03:42:06.353Z,9.69
2022-08-07T03:44:37.466Z,9.71
2022-08-07T03:47:13.029Z,9.73
2022-08-07T03:49:51.860Z,9.70
2022-08-07T03:52:22.567Z,9.68
2022-08-07T03:54:54.993Z,9.63
2022-08-07T03:58:33.205Z,9.62
2022-08-07T04:00:14.316Z,9.63
2022-08-07T04:02:43.099Z,9.65
2022-08-07T04:05:14.022Z,9.65
2022-08-07T04:07:51.233Z,9.67
2022-08-07T04:10:19.537Z,9.71
2022-08-07T04:12:48.782Z,9.71
2022-08-07T04:15:19.098Z,9.73
2022-08-07T04:18:30.797Z,9.77
2022-08-07T04:20:35.147Z,9.81
2022-08-07T04:23:06.440Z,9.82
2022-08-07T04:25:39.000Z,9.83
2022-08-07T04:28:10.188Z,9.84
2022-08-07T04:30:51.266Z,9.85
2022-08-07T04:33:24.769Z,9.85
2022-08-07T04:35:54.022Z,9.86
2022-08-07T04:38:21.857Z,9.81
2022-08-07T04:40:52.057Z,9.77
2022-08-07T04:44:10.470Z,9.74
2022-08-07T04:46:25.785Z,9.69
2022-08-07T04:49:18.365Z,9.69
2022-08-07T04:52:00.136Z,9.68
2022-08-07T04:54:51.031Z,9.70
2022-08-07T04:58:13.073Z,9.70
2022-08-07T05:00:30.856Z,9.73
2022-08-07T05:03:59.877Z,9.80
2022-08-07T05:06:20.418Z,9.92
2022-08-07T05:09:12.643Z,10.01
2022-08-07T05:11:57.314Z,10.12
2022-08-07T05:14:54.377Z,10.23
2022-08-07T05:17:52.454Z,10.31
2022-08-07T05:20:13.739Z,10.41
2022-08-07T05:22:43.481Z,10.45
2022-08-07T05:25:25.760Z,10.49
2022-08-07T05:28:16.733Z,10.58
2022-08-07T05:30:47.118Z,10.67
2022-08-07T05:33:14.916Z,10.78
2022-08-07T05:35:42.526Z,10.93
2022-08-07T05:38:10.573Z,11.16
2022-08-07T05:40:50.362Z,11.31
2022-08-07T05:43:18.724Z,11.47
2022-08-07T05:45:46.903Z,11.62
2022-08-07T05:48:15.295Z,11.84
2022-08-07T05:50:43.459Z,12.02
2022-08-07T05:54:12.053Z,12.18
2022-08-07T05:56:03.249Z,12.36
2022-08-07T05:58:36.631Z,12.52
2022-08-07T06:01:05.985Z,12.74
2022-08-07T06:03:56.929Z,12.94
2022-08-07T06:06:29.354Z,13.09
2022-08-07T06:08:57.106Z,13.20
2022-08-07T06:11:25.096Z,13.35
2022-08-07T06:14:12.652Z,13.49
2022-08-07T06:16:39.696Z,13.64
2022-08-07T06:19:06.918Z,13.90
2022-08-07T06:22:14.586Z,14.07
2022-08-07T06:24:45.436Z,14.16
2022-08-07T06:27:06.966Z,14.29
2022-08-07T06:29:34.463Z,14.41
2022-08-07T06:32:05.451Z,14.51
2022-08-07T06:34:31.896Z,14.69
2022-08-07T06:36:58.348Z,14.94
2022-08-07T06:40:16.542Z,15.21
2022-08-07T06:42:33.031Z,15.33
2022-08-07T06:45:02.433Z,15.75
2022-08-07T06:47:38.745Z,15.99
2022-08-07T06:50:15.063Z,16.25
2022-08-07T06:52:53.017Z,16.57
2022-08-07T06:55:33.325Z,17.07
2022-08-07T06:58:13.765Z,17.41
2022-08-07T07:00:44.372Z,17.47
2022-08-07T07:03:13.836Z,18.31
2022-08-07T07:06:05.475Z,20.16
2022-08-07T07:08:33.028Z,21.17
2022-08-07T07:11:00.972Z,21.53
2022-08-07T07:13:56.265Z,21.25
2022-08-07T07:16:34.389Z,21.86
2022-08-07T07:19:55.679Z,22.56
2022-08-07T07:22:04.800Z,22.01
2022-08-07T07:24:42.976Z,22.41
2022-08-07T07:27:35.641Z,22.46
2022-08-07T07:30:32.336Z,22.67
2022-08-07T07:33:01.346Z,22.82
2022-08-07T07:35:28.390Z,23.03
2022-08-07T07:38:05.834Z,23.30
2022-08-07T07:40:34.776Z,23.91
2022-08-07T07:43:15.440Z,23.81
2022-08-07T07:46:38.576Z,24.44
2022-08-07T07:48:36.515Z,24.44
2022-08-07T07:51:08.133Z,24.67
2022-08-07T07:53:51.256Z,24.92
2022-08-07T07:56:30.245Z,24.68
2022-08-07T07:59:00.217Z,24.77
2022-08-07T08:02:03.336Z,24.94
2022-08-07T08:04:18.421Z,24.92
2022-08-07T08:06:48.156Z,25.69
2022-08-07T08:09:23.249Z,25.68
2022-08-07T08:12:02.221Z,24.75
2022-08-07T08:14:31.479Z,25.19
2022-08-07T08:17:56.389Z,25.43
2022-08-07T08:20:18.752Z,25.54
2022-08-07T08:23:02.276Z,25.93
2022-08-07T08:25:51.156Z,25.88
2022-08-07T08:28:38.242Z,24.91
2022-08-07T08:31:14.577Z,25.06
2022-08-07T08:33:48.934Z,25.29
2022-08-07T08:36:25.487Z,25.26
2022-08-07T08:38:57.463Z,25.63
2022-08-07T08:41:57.522Z,25.86
2022-08-07T08:44:57.110Z,26.61
2022-08-07T08:47:28.937Z,26.64
2022-08-07T08:50:39.581Z,27.23
2022-08-07T08:53:19.222Z,26.55
2022-08-07T08:55:59.165Z,25.80
2022-08-07T08:58:54.676Z,25.77
2022-08-07T09:01:40.118Z,26.45
2022-08-07T09:04:36.683Z,26.42
2022-08-07T09:07:11.446Z,26.95
2022-08-07T09:10:17.629Z,27.23
2022-08-07T09:13:36.946Z,27.76
2022-08-07T09:16:21.957Z,27.68
2022-08-07T09:19:07.143Z,27.35
2022-08-07T09:24:33.192Z,26.98
2022-08-07T09:26:05.496Z,27.35
2022-08-07T09:30:05.813Z,27.43
2022-08-07T09:31:54.829Z,26.84
2022-08-07T09:34:27.625Z,26.45
2022-08-07T09:37:00.167Z,26.25
2022-08-07T09:39:56.068Z,26.83
2022-08-07T09:42:39.516Z,27.96
2022-08-07T09:47:25.279Z,28.24
2022-08-07T09:50:00.887Z,27.99
2022-08-07T09:52:16.021Z,27.44
2022-08-07T09:54:57.648Z,27.35
2022-08-07T09:57:46.838Z,27.94
2022-08-07T10:00:16.643Z,28.48
2022-08-07T10:04:07.207Z,28.34
2022-08-07T10:06:36.162Z,29.07
2022-08-07T10:09:34.320Z,28.79
2022-08-07T10:12:32.515Z,29.84
2022-08-07T10:15:44.281Z,30.68
2022-08-07T10:18:49.608Z,29.46
2022-08-07T10:22:12.293Z,30.36
2022-08-07T10:24:30.051Z,29.90
2022-08-07T10:27:46.785Z,29.43
2022-08-07T10:30:17.835Z,29.31
2022-08-07T10:33:05.709Z,30.42
2022-08-07T10:36:10.958Z,30.72
2022-08-07T10:39:01.497Z,30.22
2022-08-07T10:41:52.063Z,29.96
2022-08-07T10:44:39.176Z,30.98
2022-08-07T10:47:53.581Z,31.12
2022-08-07T10:50:29.484Z,31.17
2022-08-07T10:52:55.807Z,30.91
2022-08-07T10:55:37.783Z,31.07
2022-08-07T10:58:59.601Z,31.20
2022-08-07T11:01:51.393Z,30.96
2022-08-07T11:04:51.196Z,31.12
2022-08-07T11:07:58.784Z,31.33
2022-08-07T11:10:29.775Z,30.37
2022-08-07T11:13:42.266Z,30.98
2022-08-07T11:16:08.377Z,31.04
2022-08-07T11:19:07.008Z,31.32
2022-08-07T11:21:50.080Z,31.36
2022-08-07T11:24:32.981Z,31.30
2022-08-07T11:27:13.505Z,31.45
2022-08-07T11:30:18.040Z,31.58
2022-08-07T11:33:01.199Z,32.44
2022-08-07T11:35:59.219Z,33.02
2022-08-07T11:38:33.328Z,31.96
2022-08-07T11:41:09.328Z,32.39
2022-08-07T11:44:11.364Z,32.52
2022-08-07T11:47:02.337Z,32.09
2022-08-07T11:50:32.300Z,30.52
2022-08-07T11:53:16.160Z,31.34
2022-08-07T11:56:25.528Z,32.19
2022-08-07T11:59:22.208Z,33.07
2022-08-07T12:02:20.717Z,32.86
2022-08-07T12:04:59.423Z,33.16
2022-08-07T12:07:38.750Z,33.68
2022-08-07T12:10:13.660Z,33.23
2022-08-07T12:12:46.502Z,33.24
2022-08-07T12:15:46.216Z,33.75
2022-08-07T12:18:29.812Z,32.94
2022-08-07T12:22:36.985Z,32.60
2022-08-07T12:24:38.181Z,32.64
2022-08-07T12:27:15.922Z,33.19
2022-08-07T12:29:51.811Z,33.01
2022-08-07T12:32:28.756Z,33.67
2022-08-07T12:34:58.339Z,33.45
2022-08-07T12:37:28.289Z,32.51
2022-08-07T12:40:43.986Z,32.91
2022-08-07T12:43:09.239Z,33.20
2022-08-07T12:45:45.111Z,32.66
2022-08-07T12:48:41.462Z,32.10
2022-08-07T12:51:23.959Z,31.84
2022-08-07T12:54:38.740Z,29.77
2022-08-07T12:57:07.372Z,28.16
2022-08-07T12:59:54.253Z,26.95
2022-08-07T13:02:39.996Z,26.48
2022-08-07T13:06:04.477Z,26.13
2022-08-07T13:08:43.338Z,25.26
2022-08-07T13:12:01.972Z,24.85
2022-08-07T13:14:34.928Z,24.63
2022-08-07T13:17:39.990Z,24.59
2022-08-07T13:20:27.755Z,24.52
2022-08-07T13:22:59.277Z,24.08
2022-08-07T13:25:45.624Z,23.99
2022-08-07T13:28:25.178Z,23.87
2022-08-07T13:31:06.443Z,23.68
2022-08-07T13:34:30.769Z,23.46
2022-08-07T13:36:59.460Z,23.66
2022-08-07T13:40:34.018Z,23.68
2022-08-07T13:42:25.941Z,23.67
2022-08-07T13:46:06.628Z,23.58
2022-08-07T13:48:06.017Z,23.53
2022-08-07T13:50:44.472Z,23.51
2022-08-07T13:53:23.796Z,23.51
2022-08-07T13:55:54.613Z,23.32
2022-08-07T13:58:56.556Z,23.41
2022-08-07T14:01:26.949Z,23.40
2022-08-07T14:04:05.421Z,23.26
2022-08-07T14:06:40.403Z,23.49
2022-08-07T14:09:17.195Z,23.37
2022-08-07T14:12:07.314Z,23.44
2022-08-07T14:14:48.392Z,23.27
2022-08-07T14:18:12.711Z,23.24
2022-08-07T14:20:43.458Z,23.13
2022-08-07T14:23:18.040Z,23.13
2022-08-07T14:26:11.357Z,23.07
2022-08-07T14:29:10.512Z,22.94
2022-08-07T14:31:57.946Z,22.96
2022-08-07T14:34:30.333Z,23.21
2022-08-07T14:37:03.144Z,23.29
2022-08-07T14:40:18.105Z,23.06
2022-08-07T14:42:32.554Z,22.73
2022-08-07T14:45:22.376Z,22.43
2022-08-07T14:50:45.579Z,22.47
2022-08-07T14:53:16.307Z,22.57
2022-08-07T14:56:13.069Z,22.60
2022-08-07T14:58:43.951Z,22.84
2022-08-07T15:01:21.691Z,22.78
2022-08-07T15:03:52.453Z,22.90
2022-08-07T15:06:27.435Z,23.14
2022-08-07T15:12:06.798Z,22.88
2022-08-07T15:14:35.197Z,22.86
2022-08-07T15:17:32.512Z,22.83
2022-08-07T15:23:15.088Z,22.74
2022-08-07T15:25:50.862Z,22.68
2022-08-07T15:32:00.591Z,22.39
2022-08-07T15:34:02.171Z,22.39
2022-08-07T15:37:03.852Z,22.34
2022-08-07T15:39:17.156Z,22.22
2022-08-07T15:42:44.755Z,22.17
2022-08-07T15:44:52.027Z,22.07
2022-08-07T15:47:21.348Z,21.93
2022-08-07T15:53:15.429Z,21.88
2022-08-07T15:56:02.588Z,21.73
2022-08-07T15:58:41.553Z,21.53
2022-08-07T16:01:20.150Z,21.39
2022-08-07T16:03:54.412Z,21.52
2022-08-07T16:06:30.387Z,21.75
2022-08-07T16:09:01.843Z,21.85
2022-08-07T16:11:41.685Z,21.95
2022-08-07T16:14:48.620Z,21.98
2022-08-07T16:18:02.134Z,21.99
2022-08-07T16:20:55.192Z,21.97
2022-08-07T16:23:58.675Z,21.92
2022-08-07T16:26:30.823Z,21.90
2022-08-07T16:30:06.345Z,21.82
2022-08-07T16:32:46.610Z,21.81
2022-08-07T16:35:51.606Z,21.83
2022-08-07T16:38:09.623Z,21.82
2022-08-07T16:41:01.468Z,21.77
2022-08-07T16:44:05.553Z,21.71
2022-08-07T16:47:18.622Z,21.62
2022-08-07T16:50:36.290Z,21.58
2022-08-07T16:54:01.738Z,21.49
2022-08-07T16:56:20.146Z,21.42
2022-08-07T16:59:11.276Z,21.42
2022-08-07T17:01:47.705Z,21.38
2022-08-07T17:04:33.031Z,21.41
2022-08-07T17:07:28.178Z,21.33
2022-08-07T17:10:32.529Z,21.21
2022-08-07T17:13:41.252Z,21.10
2022-08-07T17:16:28.463Z,20.99
2022-08-07T17:19:03.804Z,20.96
2022-08-07T17:21:51.876Z,20.87
2022-08-07T17:24:55.254Z,20.79
2022-08-07T17:27:50.703Z,20.72
2022-08-07T17:30:20.250Z,20.66
2022-08-07T17:34:08.327Z,20.56
2022-08-07T17:36:20.922Z,20.53
2022-08-07T17:38:50.956Z,20.48
2022-08-07T17:42:04.071Z,20.42
2022-08-07T17:44:45.267Z,20.41
2022-08-07T17:47:42.309Z,20.31
2022-08-07T17:50:22.341Z,20.27
2022-08-07T17:53:00.516Z,20.22
2022-08-07T17:56:00.363Z,20.15
2022-08-07T17:58:46.526Z,20.13
2022-08-07T18:01:39.585Z,20.08
2022-08-07T18:04:24.724Z,20.04
2022-08-07T18:07:22.903Z,19.94
2022-08-07T18:10:07.265Z,19.86
2022-08-07T18:12:51.267Z,19.79
2022-08-07T18:15:35.661Z,19.72
2022-08-07T18:18:39.941Z,19.63
2022-08-07T18:21:42.360Z,19.52
2022-08-07T18:24:33.034Z,19.36
2022-08-07T18:27:22.807Z,19.16
2022-08-07T18:30:07.621Z,19.03
2022-08-07T18:33:15.931Z,18.93
2022-08-07T18:36:14.380Z,18.83
2022-08-07T18:40:06.630Z,18.66
2022-08-07T18:42:16.778Z,18.58
2022-08-07T18:45:42.838Z,18.49
2022-08-07T18:49:23.729Z,18.42
2022-08-07T18:52:35.501Z,18.28
2022-08-07T18:54:30.509Z,18.18
2022-08-07T18:57:30.111Z,18.11
2022-08-07T19:00:32.963Z,18.03
2022-08-07T19:03:02.750Z,17.89
2022-08-07T19:06:02.064Z,17.75
2022-08-07T19:08:49.427Z,17.65
2022-08-07T19:11:36.559Z,17.60
2022-08-07T19:14:40.992Z,17.53
2022-08-07T19:18:01.643Z,17.48
2022-08-07T19:20:28.731Z,17.44
2022-08-07T19:23:18.413Z,17.39
2022-08-07T19:26:22.768Z,17.27
2022-08-07T19:31:00.694Z,17.21
2022-08-07T19:32:10.955Z,17.12
2022-08-07T19:34:40.293Z,17.08
2022-08-07T19:37:17.313Z,16.98
2022-08-07T19:39:56.359Z,16.88
2022-08-07T19:42:26.955Z,16.79
2022-08-07T19:45:08.010Z,16.77
2022-08-07T19:47:43.175Z,16.74
2022-08-07T19:50:44.392Z,16.69
2022-08-07T19:52:59.003Z,16.62
2022-08-07T19:55:56.446Z,16.57
2022-08-07T19:58:16.800Z,16.55
2022-08-07T20:00:55.440Z,16.54
2022-08-07T20:03:34.565Z,16.50
2022-08-07T20:06:06.278Z,16.47
2022-08-07T20:08:48.817Z,16.39
2022-08-07T20:11:23.061Z,16.36
2022-08-07T20:14:03.018Z,16.29
2022-08-07T20:16:36.778Z,16.21
2022-08-07T20:19:25.153Z,16.19
2022-08-07T20:21:56.955Z,16.16
2022-08-07T20:24:30.128Z,16.10
2022-08-07T20:27:01.894Z,16.07
2022-08-07T20:29:47.950Z,15.99
2022-08-07T20:32:54.699Z,15.97
2022-08-07T20:35:26.483Z,15.92
2022-08-07T20:37:57.762Z,15.89
2022-08-07T20:40:32.407Z,15.86
2022-08-07T20:43:02.168Z,15.80
2022-08-07T20:45:33.126Z,15.68
2022-08-07T20:48:28.455Z,15.62
2022-08-07T20:50:59.196Z,15.62
2022-08-07T20:54:03.880Z,15.53
2022-08-07T20:56:16.035Z,15.42
2022-08-07T20:58:49.671Z,15.34
2022-08-07T21:01:21.451Z,15.27
2022-08-07T21:04:19.633Z,15.24
2022-08-07T21:06:46.557Z,15.22
2022-08-07T21:09:24.660Z,15.17
2022-08-07T21:11:57.527Z,15.08
2022-08-07T21:14:31.984Z,15.05
2022-08-07T21:18:20.782Z,15.02
2022-08-07T21:20:05.173Z,14.95
2022-08-07T21:22:44.685Z,14.93
2022-08-07T21:25:28.874Z,14.89
2022-08-07T21:28:09.279Z,14.83
2022-08-07T21:30:57.493Z,14.75
2022-08-07T21:33:41.129Z,14.74
2022-08-07T21:36:31.896Z,14.73
2022-08-07T21:39:47.181Z,14.71
2022-08-07T21:42:14.971Z,14.74
2022-08-07T21:46:05.436Z,14.72
2022-08-07T21:48:29.225Z,14.68
2022-08-07T21:51:32.082Z,14.65
2022-08-07T21:54:25.452Z,14.67
2022-08-07T21:56:54.908Z,14.70
2022-08-07T21:59:30.583Z,14.71
2022-08-07T22:02:11.106Z,14.69
2022-08-07T22:04:51.165Z,14.66
2022-08-07T22:07:31.703Z,14.60
2022-08-07T22:10:17.529Z,14.55
2022-08-07T22:12:46.839Z,14.53
2022-08-07T22:16:41.891Z,14.51
2022-08-07T22:18:23.701Z,14.51
2022-08-07T22:20:59.445Z,14.49
2022-08-07T22:23:56.829Z,14.48
2022-08-07T22:26:30.698Z,14.42
2022-08-07T22:29:23.625Z,14.37
2022-08-07T22:32:20.406Z,14.33
2022-08-07T22:34:54.608Z,14.24
2022-08-07T22:38:03.581Z,14.13
2022-08-07T22:40:37.178Z,14.01
2022-08-07T22:43:10.795Z,13.95
2022-08-07T22:47:02.583Z,13.83
2022-08-07T22:49:59.751Z,13.74
2022-08-07T22:52:48.686Z,13.73
2022-08-07T22:55:44.471Z,13.70
2022-08-07T22:58:35.073Z,13.64
2022-08-07T23:01:41.943Z,13.59
2022-08-07T23:04:58.178Z,13.49
2022-08-07T23:08:24.354Z,13.40
2022-08-07T23:11:26.603Z,13.35
2022-08-07T23:14:16.005Z,13.35
2022-08-07T23:17:30.428Z,13.28
2022-08-07T23:20:40.288Z,13.23
2022-08-07T23:24:06.464Z,13.15
2022-08-07T23:26:25.075Z,13.09
2022-08-07T23:29:43.918Z,13.01
2022-08-07T23:34:23.251Z,12.94
2022-08-07T23:35:16.706Z,12.90
2022-08-07T23:38:00.726Z,12.87
2022-08-07T23:40:51.651Z,12.84
2022-08-07T23:43:52.568Z,12.82
2022-08-07T23:46:37.391Z,12.78
2022-08-07T23:49:42.045Z,12.78
2022-08-07T23:53:01.036Z,12.69
2022-08-07T23:55:53.601Z,12.60
2022-08-07T23:58:21.191Z,12.55
